createdAt,value
2022-07-29T00:04:09.604Z,100423.66
2022-07-29T00:06:36.891Z,100458.34
2022-07-29T00:09:03.726Z,100458.34
2022-07-29T00:11:30.769Z,100460.66
2022-07-29T00:13:58.032Z,100450.50
2022-07-29T00:16:24.965Z,100436.63
2022-07-29T00:18:52.126Z,100442.50
2022-07-29T00:21:18.932Z,100459.97
2022-07-29T00:23:45.883Z,100457.22
2022-07-29T00:26:12.873Z,100459.91
2022-07-29T00:28:39.650Z,100452.47
2022-07-29T00:31:06.595Z,100459.38
2022-07-29T00:33:33.674Z,100448.97
2022-07-29T00:36:00.447Z,100428.84
2022-07-29T00:38:27.341Z,100441.50
2022-07-29T00:40:54.334Z,100437.75
2022-07-29T00:43:21.130Z,100432.31
2022-07-29T00:45:47.883Z,100403.75
2022-07-29T00:48:14.992Z,100436.47
2022-07-29T00:50:42.693Z,100426.13
2022-07-29T00:53:21.082Z,100437.16
2022-07-29T00:55:47.982Z,100438.41
2022-07-29T00:58:15.003Z,100429.69
2022-07-29T01:00:43.555Z,100431.19
2022-07-29T01:03:12.600Z,100416.66
2022-07-29T01:05:49.860Z,100434.63
2022-07-29T01:08:19.204Z,100426.66
2022-07-29T01:10:47.852Z,100411.94
2022-07-29T01:13:15.853Z,100427.50
2022-07-29T01:15:49.437Z,100427.09
2022-07-29T01:18:29.575Z,100401.16
2022-07-29T01:21:25.175Z,100419.84
2022-07-29T01:24:17.479Z,100419.31
2022-07-29T01:26:58.561Z,100408.19
2022-07-29T01:29:38.876Z,100390.41
2022-07-29T01:32:28.203Z,100372.31
2022-07-29T01:35:03.156Z,100403.38
2022-07-29T01:37:48.071Z,100402.34
2022-07-29T01:40:35.468Z,100382.66
2022-07-29T01:43:11.959Z,100402.22
2022-07-29T01:45:42.859Z,100398.06
2022-07-29T01:48:44.978Z,100400.03
2022-07-29T01:51:37.093Z,100396.72
2022-07-29T01:54:36.454Z,100401.06
2022-07-29T01:57:05.839Z,100354.63
2022-07-29T01:59:36.140Z,100405.91
2022-07-29T02:02:03.824Z,100400.91
2022-07-29T02:04:34.709Z,100393.50
2022-07-29T02:07:06.837Z,100395.34
2022-07-29T02:09:37.349Z,100411.41
2022-07-29T02:12:06.902Z,100393.41
2022-07-29T02:14:55.208Z,100405.50
2022-07-29T02:17:28.681Z,100400.75
2022-07-29T02:20:00.281Z,100385.59
2022-07-29T02:22:31.336Z,100400.97
2022-07-29T02:25:02.092Z,100403.00
2022-07-29T02:27:34.595Z,100413.63
2022-07-29T02:30:03.974Z,100412.19
2022-07-29T02:32:32.991Z,100420.13
2022-07-29T02:35:02.574Z,100422.84
2022-07-29T02:37:31.869Z,100400.00
2022-07-29T02:40:00.106Z,100415.75
2022-07-29T02:42:28.594Z,100419.13
2022-07-29T02:44:56.399Z,100421.03
2022-07-29T02:47:26.202Z,100423.28
2022-07-29T02:50:14.610Z,100379.94
2022-07-29T02:53:10.074Z,100424.34
2022-07-29T02:55:36.907Z,100421.63
2022-07-29T02:58:16.936Z,100414.38
2022-07-29T03:00:48.628Z,100412.91
2022-07-29T03:03:18.339Z,100429.16
2022-07-29T03:05:45.722Z,100424.34
2022-07-29T03:08:13.811Z,100392.47
2022-07-29T03:10:43.731Z,100433.59
2022-07-29T03:13:16.722Z,100437.34
2022-07-29T03:15:45.789Z,100429.31
2022-07-29T03:18:13.504Z,100432.84
2022-07-29T03:20:41.522Z,100447.81
2022-07-29T03:23:09.428Z,100429.34
2022-07-29T03:25:36.647Z,100421.88
2022-07-29T03:28:03.640Z,100444.94
2022-07-29T03:30:31.675Z,100423.47
2022-07-29T03:32:59.279Z,100443.84
2022-07-29T03:35:26.192Z,100450.69
2022-07-29T03:37:52.949Z,100435.91
2022-07-29T03:40:27.102Z,100441.06
2022-07-29T03:42:55.918Z,100452.84
2022-07-29T03:45:24.806Z,100433.31
2022-07-29T03:47:57.045Z,100445.50
2022-07-29T03:50:26.315Z,100444.00
2022-07-29T03:52:53.490Z,100457.84
2022-07-29T03:55:20.488Z,100446.00
2022-07-29T03:57:49.126Z,100441.78
2022-07-29T04:00:19.017Z,100451.78
2022-07-29T04:02:49.800Z,100416.66
2022-07-29T04:05:19.549Z,100460.13
2022-07-29T04:07:47.432Z,100458.53
2022-07-29T04:10:16.584Z,100453.00
2022-07-29T04:12:44.371Z,100404.16
2022-07-29T04:15:11.871Z,100410.34
2022-07-29T04:17:38.893Z,100448.59
2022-07-29T04:20:06.344Z,100437.44
2022-07-29T04:22:33.261Z,100435.63
2022-07-29T04:25:03.948Z,100438.41
2022-07-29T04:27:31.392Z,100432.91
2022-07-29T04:29:58.128Z,100439.94
2022-07-29T04:32:29.992Z,100444.50
2022-07-29T04:34:56.919Z,100434.16
2022-07-29T04:37:23.641Z,100413.69
2022-07-29T04:39:50.503Z,100441.59
2022-07-29T04:42:17.528Z,100414.56
2022-07-29T04:44:51.973Z,100430.59
2022-07-29T04:47:19.040Z,100442.78
2022-07-29T04:49:45.735Z,100441.34
2022-07-29T04:52:12.520Z,100436.84
2022-07-29T04:54:39.469Z,100425.53
2022-07-29T04:57:06.283Z,100435.69
2022-07-29T04:59:33.164Z,100411.41
2022-07-29T05:02:00.307Z,100397.72
2022-07-29T05:04:27.146Z,100415.38
2022-07-29T05:06:54.022Z,100436.88
2022-07-29T05:09:20.987Z,100428.59
2022-07-29T05:11:47.785Z,100431.47
2022-07-29T05:14:15.033Z,100452.06
2022-07-29T05:16:43.045Z,100444.03
2022-07-29T05:19:14.129Z,100447.66
2022-07-29T05:21:41.617Z,100455.00
2022-07-29T05:24:09.073Z,100471.09
2022-07-29T05:26:35.728Z,100452.06
2022-07-29T05:29:02.826Z,100473.09
2022-07-29T05:31:29.864Z,100455.47
2022-07-29T05:33:56.829Z,100478.53
2022-07-29T05:36:23.732Z,100476.78
2022-07-29T05:38:51.908Z,100455.13
2022-07-29T05:41:19.580Z,100469.28
2022-07-29T05:43:51.500Z,100464.06
2022-07-29T05:46:18.648Z,100420.88
2022-07-29T05:48:45.532Z,100470.50
2022-07-29T05:51:12.302Z,100472.25
2022-07-29T05:56:43.303Z,100470.41
2022-07-29T05:59:18.304Z,100470.50
2022-07-29T06:05:17.255Z,100317.66
2022-07-29T06:07:50.218Z,100351.75
2022-07-29T06:10:19.998Z,100354.06
2022-07-29T06:12:51.265Z,100351.69
2022-07-29T06:15:20.655Z,100346.69
2022-07-29T06:17:59.887Z,100426.81
2022-07-29T06:20:31.216Z,100480.50
2022-07-29T06:22:59.058Z,100408.94
2022-07-29T06:25:26.079Z,100365.19
2022-07-29T06:27:53.693Z,100474.56
2022-07-29T06:30:20.938Z,100423.75
2022-07-29T06:32:48.277Z,100437.34
2022-07-29T06:35:41.733Z,100318.25
2022-07-29T06:38:03.518Z,100450.13
2022-07-29T06:40:55.224Z,100474.75
2022-07-29T06:43:50.629Z,100486.31
2022-07-29T06:46:21.212Z,100484.97
2022-07-29T06:48:51.160Z,100487.16
2022-07-29T06:51:22.131Z,100448.25
2022-07-29T06:54:02.755Z,100476.16
2022-07-29T06:56:38.299Z,100482.13
2022-07-29T06:59:06.423Z,100471.59
2022-07-29T07:01:33.277Z,100464.06
2022-07-29T07:04:00.112Z,100471.00
2022-07-29T07:06:27.581Z,100454.31
2022-07-29T07:08:54.477Z,100469.72
2022-07-29T07:11:21.422Z,100466.78
2022-07-29T07:13:48.315Z,100466.59
2022-07-29T07:16:15.156Z,100443.56
2022-07-29T07:18:42.029Z,100453.22
2022-07-29T07:21:09.183Z,100460.66
2022-07-29T07:23:36.083Z,100453.06
2022-07-29T07:26:04.040Z,100445.41
2022-07-29T07:28:30.897Z,100445.44
2022-07-29T07:30:58.766Z,100455.88
2022-07-29T07:33:25.782Z,100453.97
2022-07-29T07:35:52.705Z,100450.38
2022-07-29T07:38:19.483Z,100451.50
2022-07-29T07:40:47.409Z,100448.50
2022-07-29T07:43:14.397Z,100453.69
2022-07-29T07:45:41.313Z,100460.88
2022-07-29T07:48:11.057Z,100458.97
2022-07-29T07:50:38.222Z,100440.81
2022-07-29T07:53:05.128Z,100455.13
2022-07-29T07:55:53.210Z,100453.13
2022-07-29T07:58:18.990Z,100455.03
2022-07-29T08:00:46.720Z,100445.66
2022-07-29T08:03:17.071Z,100455.81
2022-07-29T08:05:44.699Z,100434.16
2022-07-29T08:08:13.191Z,100436.63
2022-07-29T08:10:57.036Z,100464.00
2022-07-29T08:13:39.689Z,100423.19
2022-07-29T08:16:15.959Z,100451.19
2022-07-29T08:18:44.816Z,100465.44
2022-07-29T08:21:15.264Z,100462.16
2022-07-29T08:23:59.677Z,100467.59
2022-07-29T08:26:28.039Z,100471.66
2022-07-29T08:28:55.114Z,100466.97
2022-07-29T08:31:22.068Z,100453.22
2022-07-29T08:33:49.069Z,100459.22
2022-07-29T08:36:15.825Z,100482.50
2022-07-29T08:38:42.634Z,100471.94
2022-07-29T08:41:09.708Z,100470.00
2022-07-29T08:43:38.412Z,100475.13
2022-07-29T08:46:05.450Z,100477.78
2022-07-29T08:48:33.383Z,100469.28
2022-07-29T08:51:01.605Z,100457.47
2022-07-29T08:53:29.922Z,100451.63
2022-07-29T08:55:58.532Z,100469.44
2022-07-29T08:58:26.402Z,100439.09
2022-07-29T09:00:56.185Z,100469.00
2022-07-29T09:03:31.594Z,100462.66
2022-07-29T09:06:02.384Z,100451.47
2022-07-29T09:08:29.475Z,100461.50
2022-07-29T09:11:00.971Z,100442.41
2022-07-29T09:13:42.031Z,100436.41
2022-07-29T09:16:09.591Z,100462.53
2022-07-29T09:18:43.124Z,100459.34
2022-07-29T09:21:34.660Z,100446.34
2022-07-29T09:24:04.753Z,100451.97
2022-07-29T09:26:33.465Z,100452.69
2022-07-29T09:29:00.773Z,100430.78
2022-07-29T09:31:35.573Z,100447.78
2022-07-29T09:34:16.121Z,100438.34
2022-07-29T09:37:05.899Z,100440.78
2022-07-29T09:39:46.854Z,100284.53
2022-07-29T09:42:16.774Z,100276.09
2022-07-29T09:44:49.548Z,100269.50
2022-07-29T09:47:19.124Z,100383.94
2022-07-29T09:49:59.305Z,100334.44
2022-07-29T10:08:50.635Z,100251.91
2022-07-29T10:11:19.011Z,100264.78
2022-07-29T10:44:07.773Z,100354.66
2022-07-29T10:56:28.427Z,100289.59
2022-07-29T10:59:23.608Z,100338.94
2022-07-29T11:01:52.704Z,100233.91
2022-07-29T11:04:47.155Z,100338.25
2022-07-29T11:07:18.837Z,100281.94
2022-07-29T11:10:27.020Z,100288.81
2022-07-29T11:13:43.016Z,100326.53
2022-07-29T11:16:10.190Z,100317.28
2022-07-29T11:19:13.641Z,100317.50
2022-07-29T11:21:55.512Z,100305.81
2022-07-29T11:24:50.193Z,100304.03
2022-07-29T11:27:23.356Z,100282.16
2022-07-29T11:30:01.611Z,100303.59
2022-07-29T11:32:39.837Z,100277.38
2022-07-29T11:38:31.686Z,100286.63
2022-07-29T11:41:21.107Z,100281.25
2022-07-29T11:43:58.434Z,100275.09
2022-07-29T11:46:45.036Z,100284.31
2022-07-29T11:49:15.308Z,100293.94
2022-07-29T11:51:57.845Z,100278.69
2022-07-29T11:54:27.950Z,100260.28
2022-07-29T11:56:55.913Z,100274.22
2022-07-29T11:59:23.179Z,100278.44
2022-07-29T12:02:36.572Z,100259.50
2022-07-29T12:04:56.441Z,100272.56
2022-07-29T12:10:36.551Z,100158.22
2022-07-29T12:13:05.375Z,100250.00
2022-07-29T12:15:45.731Z,100268.25
2022-07-29T12:21:56.529Z,100131.09
2022-07-29T13:02:37.828Z,100253.44
2022-07-29T13:05:07.194Z,100225.41
2022-07-29T13:11:57.796Z,100201.00
2022-07-29T13:14:45.641Z,100227.66
2022-07-29T13:17:13.597Z,100231.94
2022-07-29T13:19:45.651Z,100235.53
2022-07-29T13:22:17.071Z,100229.38
2022-07-29T13:24:50.548Z,100208.84
2022-07-29T13:27:28.750Z,100235.63
2022-07-29T13:29:59.743Z,100176.97
2022-07-29T13:32:28.548Z,100177.34
2022-07-29T13:35:01.788Z,100216.03
2022-07-29T13:37:35.288Z,100222.66
2022-07-29T13:40:04.474Z,100206.31
2022-07-29T13:42:32.967Z,100200.56
2022-07-29T13:45:01.477Z,100208.16
2022-07-29T13:47:32.444Z,100159.59
2022-07-29T13:50:02.193Z,100195.09
2022-07-29T13:52:30.047Z,100168.41
2022-07-29T13:54:57.198Z,100176.13
2022-07-29T13:57:24.201Z,100214.19
2022-07-29T13:59:54.282Z,100195.56
2022-07-29T14:02:25.303Z,100209.59
2022-07-29T14:04:52.884Z,100202.81
2022-07-29T14:07:19.746Z,100207.19
2022-07-29T14:09:46.575Z,100208.88
2022-07-29T14:12:14.878Z,100209.56
2022-07-29T14:14:42.478Z,100208.78
2022-07-29T14:17:10.363Z,100199.97
2022-07-29T14:19:38.983Z,100200.66
2022-07-29T14:22:07.304Z,100190.13
2022-07-29T14:24:37.216Z,100189.53
2022-07-29T14:27:06.220Z,100179.53
2022-07-29T14:29:35.275Z,100187.22
2022-07-29T14:32:04.589Z,100189.75
2022-07-29T14:34:31.750Z,100189.53
2022-07-29T14:36:58.516Z,100183.53
2022-07-29T14:39:25.345Z,100189.97
2022-07-29T14:41:59.449Z,100182.88
2022-07-29T14:44:32.180Z,100177.56
2022-07-29T14:47:00.866Z,100173.50
2022-07-29T14:49:28.235Z,100165.44
2022-07-29T14:51:55.272Z,100171.56
2022-07-29T14:54:22.889Z,100168.00
2022-07-29T14:56:51.928Z,100126.09
2022-07-29T14:59:18.725Z,100140.78
2022-07-29T15:01:45.797Z,100122.00
2022-07-29T15:04:12.616Z,100135.50
2022-07-29T15:06:39.824Z,100171.97
2022-07-29T15:09:06.855Z,100169.94
2022-07-29T15:11:38.337Z,100157.06
2022-07-29T15:14:06.714Z,100161.25
2022-07-29T15:16:36.291Z,100143.25
2022-07-29T15:19:03.335Z,100140.19
2022-07-29T15:21:30.173Z,100140.19
2022-07-29T15:23:57.157Z,100137.16
2022-07-29T15:26:23.928Z,100138.25
2022-07-29T15:28:50.646Z,100141.53
2022-07-29T15:31:18.221Z,100138.25
2022-07-29T15:33:45.869Z,100118.94
2022-07-29T15:36:25.485Z,100140.63
2022-07-29T15:39:00.620Z,100143.59
2022-07-29T15:41:27.507Z,100141.81
2022-07-29T15:43:54.354Z,100150.94
2022-07-29T15:46:40.174Z,100134.66
2022-07-29T15:49:08.091Z,100153.06
2022-07-29T15:51:35.496Z,100139.22
2022-07-29T15:54:07.672Z,100150.78
2022-07-29T15:56:34.774Z,100152.69
2022-07-29T15:59:02.113Z,100102.44
2022-07-29T16:01:28.991Z,100149.69
2022-07-29T16:03:58.599Z,100133.91
2022-07-29T16:06:25.942Z,100160.88
2022-07-29T16:08:56.284Z,100124.16
2022-07-29T16:11:23.058Z,100182.56
2022-07-29T16:13:50.733Z,100156.69
2022-07-29T16:16:18.642Z,100210.94
2022-07-29T16:18:46.365Z,100154.41
2022-07-29T16:21:13.804Z,100204.97
2022-07-29T16:23:40.838Z,100234.59
2022-07-29T16:26:07.937Z,100259.06
2022-07-29T16:28:35.015Z,100264.34
2022-07-29T16:31:02.096Z,100277.47
2022-07-29T16:33:28.975Z,100302.97
2022-07-29T16:36:18.572Z,100316.91
2022-07-29T16:38:47.108Z,100323.50
2022-07-29T16:41:14.435Z,100328.66
2022-07-29T16:43:41.525Z,100349.22
2022-07-29T16:46:09.353Z,100337.81
2022-07-29T16:48:40.920Z,100326.00
2022-07-29T16:51:08.686Z,100332.19
2022-07-29T16:53:35.779Z,100331.72
2022-07-29T16:56:02.929Z,100323.47
2022-07-29T16:58:29.971Z,100304.47
2022-07-29T17:00:56.805Z,100259.84
2022-07-29T17:03:23.933Z,100287.25
2022-07-29T17:05:50.965Z,100280.88
2022-07-29T17:08:22.087Z,100271.19
2022-07-29T17:10:49.295Z,100265.16
2022-07-29T17:13:16.512Z,100245.88
2022-07-29T17:15:44.146Z,100275.16
2022-07-29T17:18:12.322Z,100229.69
2022-07-29T17:20:42.029Z,100223.56
2022-07-29T17:23:09.486Z,100257.44
2022-07-29T17:25:36.555Z,100238.41
2022-07-29T17:28:03.722Z,100234.91
2022-07-29T17:30:30.536Z,100256.75
2022-07-29T17:32:57.320Z,100262.06
2022-07-29T17:35:42.542Z,100217.31
2022-07-29T17:38:09.335Z,100273.31
2022-07-29T17:40:36.577Z,100267.41
2022-07-29T17:43:04.777Z,100241.19
2022-07-29T17:45:49.604Z,100269.44
2022-07-29T17:48:19.015Z,100228.41
2022-07-29T17:50:47.210Z,100255.00
2022-07-29T17:53:16.355Z,100240.34
2022-07-29T17:55:45.687Z,100263.13
2022-07-29T17:58:12.930Z,100258.16
2022-07-29T18:00:39.751Z,100268.78
2022-07-29T18:03:07.184Z,100253.56
2022-07-29T18:05:35.021Z,100232.66
2022-07-29T18:08:02.027Z,100251.91
2022-07-29T18:10:28.990Z,100258.66
2022-07-29T18:12:56.403Z,100259.72
2022-07-29T18:15:23.334Z,100258.88
2022-07-29T18:17:57.226Z,100258.03
2022-07-29T18:20:26.155Z,100285.47
2022-07-29T18:22:54.489Z,100214.56
2022-07-29T18:25:22.168Z,100290.41
2022-07-29T18:27:50.947Z,100276.94
2022-07-29T18:30:20.942Z,100293.75
2022-07-29T18:33:18.199Z,100301.75
2022-07-29T18:35:36.685Z,100243.25
2022-07-29T18:38:03.880Z,100246.81
2022-07-29T18:40:30.832Z,100310.03
2022-07-29T18:42:58.014Z,100244.91
2022-07-29T18:45:28.302Z,100258.41
2022-07-29T18:47:56.966Z,100259.09
2022-07-29T18:50:28.979Z,100298.59
2022-07-29T18:53:01.197Z,100253.56
2022-07-29T18:55:30.620Z,100281.81
2022-07-29T18:57:57.662Z,100295.16
2022-07-29T19:00:26.217Z,100294.47
2022-07-29T19:02:54.101Z,100270.38
2022-07-29T19:05:21.774Z,100267.78
2022-07-29T19:07:49.333Z,100202.56
2022-07-29T19:10:19.166Z,100212.94
2022-07-29T19:12:46.033Z,100194.66
2022-07-29T19:15:13.073Z,100177.53
2022-07-29T19:17:48.744Z,100284.44
2022-07-29T19:20:18.610Z,100138.66
2022-07-29T19:22:47.820Z,100237.38
2022-07-29T19:25:15.158Z,100172.44
2022-07-29T19:27:42.268Z,100201.50
2022-07-29T19:30:09.624Z,100244.34
2022-07-29T19:32:37.242Z,100278.03
2022-07-29T19:35:23.936Z,100201.50
2022-07-29T19:37:52.127Z,100286.81
2022-07-29T19:40:19.394Z,100285.97
2022-07-29T19:42:48.462Z,100233.72
2022-07-29T19:45:15.617Z,100217.06
2022-07-29T19:47:42.575Z,100255.09
2022-07-29T19:50:10.241Z,100219.41
2022-07-29T19:52:37.656Z,100212.91
2022-07-29T19:55:07.808Z,100284.38
2022-07-29T19:57:40.697Z,100273.84
2022-07-29T20:00:11.342Z,100273.63
2022-07-29T20:02:40.131Z,100193.50
2022-07-29T20:05:08.935Z,100267.25
2022-07-29T20:07:37.052Z,100277.53
2022-07-29T20:10:04.985Z,100238.84
2022-07-29T20:12:32.311Z,100260.84
2022-07-29T20:15:00.042Z,100236.34
2022-07-29T20:17:27.174Z,100255.00
2022-07-29T20:19:54.192Z,100267.50
2022-07-29T20:22:22.309Z,100266.31
2022-07-29T20:24:49.687Z,100246.09
2022-07-29T20:27:16.578Z,100246.19
2022-07-29T20:29:43.866Z,100237.25
2022-07-29T20:32:12.194Z,100219.59
2022-07-29T20:34:41.278Z,100191.19
2022-07-29T20:37:13.522Z,100235.38
2022-07-29T20:39:48.771Z,100253.97
2022-07-29T20:42:16.452Z,100222.84
2022-07-29T20:44:43.334Z,100266.84
2022-07-29T20:47:10.278Z,100184.09
2022-07-29T20:49:37.473Z,100203.03
2022-07-29T20:52:04.399Z,100225.97
2022-07-29T20:54:31.303Z,100191.13
2022-07-29T20:56:58.664Z,100187.25
2022-07-29T20:59:25.674Z,100262.50
2022-07-29T21:01:52.536Z,100262.97
2022-07-29T21:04:19.757Z,100259.75
2022-07-29T21:06:46.680Z,100241.88
2022-07-29T21:09:13.650Z,100275.06
2022-07-29T21:11:44.601Z,100235.72
2022-07-29T21:14:31.569Z,100259.72
2022-07-29T21:16:58.854Z,100162.81
2022-07-29T21:19:26.345Z,100200.28
2022-07-29T21:21:53.249Z,100202.41
2022-07-29T21:24:20.529Z,100165.38
2022-07-29T21:27:04.765Z,100150.72
2022-07-29T21:29:34.741Z,100234.59
2022-07-29T21:32:03.972Z,100251.16
2022-07-29T21:34:33.832Z,100180.53
2022-07-29T21:37:01.129Z,100186.53
2022-07-29T21:39:28.101Z,100237.69
2022-07-29T21:41:55.019Z,100234.38
2022-07-29T21:44:22.109Z,100229.44
2022-07-29T21:46:49.428Z,100263.22
2022-07-29T21:49:16.345Z,100262.03
2022-07-29T21:51:43.986Z,100180.72
2022-07-29T21:54:11.095Z,100235.22
2022-07-29T21:56:37.970Z,100192.97
2022-07-29T21:59:05.398Z,100264.78
2022-07-29T22:01:39.464Z,100260.22
2022-07-29T22:04:06.877Z,100261.09
2022-07-29T22:06:34.641Z,100265.72
2022-07-29T22:09:01.420Z,100258.34
2022-07-29T22:11:28.525Z,100275.13
2022-07-29T22:13:55.392Z,100218.13
2022-07-29T22:16:22.261Z,100266.00
2022-07-29T22:18:49.418Z,100266.25
2022-07-29T22:21:16.611Z,100271.88
2022-07-29T22:23:43.511Z,100223.81
2022-07-29T22:26:10.614Z,100238.09
2022-07-29T22:28:37.468Z,100264.66
2022-07-29T22:31:04.984Z,100236.00
2022-07-29T22:33:32.002Z,100268.84
2022-07-29T22:35:58.835Z,100269.53
2022-07-29T22:38:25.629Z,100248.78
2022-07-29T22:40:52.604Z,100270.59
2022-07-29T22:43:22.232Z,100250.44
2022-07-29T22:45:49.093Z,100272.44
2022-07-29T22:48:16.224Z,100245.84
2022-07-29T22:50:43.058Z,100235.91
2022-07-29T22:53:10.093Z,100242.75
2022-07-29T22:55:37.069Z,100260.81
2022-07-29T22:58:03.974Z,100254.72
2022-07-29T23:00:30.842Z,100234.41
2022-07-29T23:02:58.065Z,100228.78
2022-07-29T23:05:24.824Z,100234.00
2022-07-29T23:07:51.719Z,100254.13
2022-07-29T23:10:19.017Z,100248.56
2022-07-29T23:12:45.772Z,100224.56
2022-07-29T23:15:12.947Z,100241.88
2022-07-29T23:17:40.693Z,100216.44
2022-07-29T23:20:09.779Z,100217.25
2022-07-29T23:22:36.852Z,100242.25
2022-07-29T23:25:05.027Z,100238.34
2022-07-29T23:27:32.216Z,100206.41
2022-07-29T23:29:59.082Z,100197.47
2022-07-29T23:32:26.076Z,100241.66
2022-07-29T23:34:52.931Z,100244.34
2022-07-29T23:37:19.942Z,100232.47
2022-07-29T23:39:46.874Z,100232.03
2022-07-29T23:42:17.146Z,100229.16
2022-07-29T23:44:44.147Z,100222.31
2022-07-29T23:47:11.262Z,100197.63
2022-07-29T23:49:38.080Z,100118.38
2022-07-29T23:52:05.654Z,100209.66
2022-07-29T23:54:42.912Z,100214.63
2022-07-29T23:57:09.668Z,100218.94
2022-07-29T23:59:36.699Z,100214.78
